Time;durP1;ratioP1;P1;durP2;ratioP2;P2;SDS_P1;SDS_P2;PMS_P1;PMS_P2;Temp;Humidity;BMP_temperature;BMP_pressure;BME280_temperature;BME280_humidity;BME280_pressure;Samples;Min_cycle;Max_cycle;Signal;HPM_P1;HPM_P2
2022/06/25 00:01:22;;;;;;;;;;;;;;;;;;5106153;28;1259;-77
2022/06/25 00:03:48;;;;;;;;;;;;;;;;;;5105850;28;1324;-76
2022/06/25 00:06:14;;;;;;;;;;;;;;;;;;5128874;27;1958;-77
2022/06/25 00:08:39;;;;;;;;;;;;;;;;;;5127308;27;1350;-77
2022/06/25 00:11:05;;;;;;;;;;;;;;;;;;5126999;27;1257;-77
2022/06/25 00:13:30;;;;;;;;;;;;;;;;;;5126056;27;1164;-77
2022/06/25 00:15:56;;;;;;;;;;;;;;;;;;5117891;27;1188;-77
2022/06/25 00:18:21;;;;;;;;;;;;;;;;;;5110027;28;1179;-76
2022/06/25 00:20:46;;;;;;;;;;;;;;;;;;5086671;28;1284;-77
2022/06/25 00:23:12;;;;;;;;;;;;;;;;;;5090730;28;1292;-76
2022/06/25 00:25:40;;;;;;;;;;;;;;;;;;5122663;27;1889;-77
2022/06/25 00:28:06;;;;;;;;;;;;;;;;;;5128946;27;1291;-77
2022/06/25 00:30:32;;;;;;;;;;;;;;;;;;5124356;27;1206;-76
2022/06/25 00:32:57;;;;;;;;;;;;;;;;;;5108632;27;1202;-76
2022/06/25 00:35:22;;;;;;;;;;;;;;;;;;5122370;27;1207;-77
2022/06/25 00:37:48;;;;;;;;;;;;;;;;;;5123540;27;1135;-77
2022/06/25 00:40:13;;;;;;;;;;;;;;;;;;5106518;28;1191;-77
2022/06/25 00:42:42;;;;;;;;;;;;;;;;;;5106959;27;1187;-77
2022/06/25 00:45:08;;;;;;;;;;;;;;;;;;5122922;27;1975;-77
2022/06/25 00:47:33;;;;;;;;;;;;;;;;;;5127061;27;1136;-76
2022/06/25 00:49:58;;;;;;;;;;;;;;;;;;5111200;27;1271;-77
2022/06/25 00:52:25;;;;;;;;;;;;;;;;;;5128165;27;1254;-76
2022/06/25 00:54:54;;;;;;;;;;;;;;;;;;5126211;27;1186;-77
2022/06/25 00:57:21;;;;;;;;;;;;;;;;;;5109778;27;1185;-77
2022/06/25 00:59:48;;;;;;;;;;;;;;;;;;5121871;27;1299;-77
2022/06/25 01:02:13;;;;;;;;;;;;;;;;;;5111891;27;1155;-77
2022/06/25 01:04:39;;;;;;;;;;;;;;;;;;5106437;28;1955;-77
2022/06/25 01:07:05;;;;;;;;;;;;;;;;;;5118821;27;1297;-78
2022/06/25 01:09:33;;;;;;;;;;;;;;;;;;5126223;27;1263;-77
2022/06/25 01:11:59;;;;;;;;;;;;;;;;;;5110721;27;1185;-77
2022/06/25 01:14:24;;;;;;;;;;;;;;;;;;5123343;27;1218;-77
2022/06/25 01:16:49;;;;;;;;;;;;;;;;;;5122737;27;1095;-77
2022/06/25 01:19:14;;;;;;;;;;;;;;;;;;5125961;27;1171;-77
2022/06/25 01:21:41;;;;;;;;;;;;;;;;;;5128686;27;1167;-77
2022/06/25 01:24:11;;;;;;;;;;;;;;;;;;5127694;27;1188;-78
2022/06/25 01:26:39;;;;;;;;;;;;;;;;;;5129034;27;1889;-77
2022/06/25 01:29:04;;;;;;;;;;;;;;;;;;5112637;27;1264;-77
2022/06/25 01:31:29;;;;;;;;;;;;;;;;;;5126937;27;1163;-77
2022/06/25 01:33:55;;;;;;;;;;;;;;;;;;5114870;27;1365;-77
2022/06/25 01:36:21;;;;;;;;;;;;;;;;;;5106483;28;1193;-77
2022/06/25 01:38:46;;;;;;;;;;;;;;;;;;5085800;28;1279;-77
2022/06/25 01:41:11;;;;;;;;;;;;;;;;;;5103253;27;1171;-77
2022/06/25 01:43:39;;;;;;;;;;;;;;;;;;5106731;27;1367;-77
2022/06/25 01:46:06;;;;;;;;;;;;;;;;;;5107230;27;1959;-77
2022/06/25 01:48:31;;;;;;;;;;;;;;;;;;5127341;27;1158;-78
2022/06/25 01:50:56;;;;;;;;;;;;;;;;;;5108037;27;1343;-77
2022/06/25 01:53:21;;;;;;;;;;;;;;;;;;5109064;27;1492;-77
2022/06/25 01:55:47;;;;;;;;;;;;;;;;;;5106683;27;1211;-77
2022/06/25 01:58:12;;;;;;;;;;;;;;;;;;5126206;27;1143;-76
2022/06/25 02:00:46;;;;;;;;;;;;;;;;;;5122468;27;1217;-77
2022/06/25 02:03:11;;;;;;;;;;;;;;;;;;5109620;27;1213;-76
2022/06/25 02:05:58;;;;;;;;;;;;;;;;;;5125698;27;1969;-77
2022/06/25 02:08:24;;;;;;;;;;;;;;;;;;5114115;27;1192;-77
2022/06/25 02:10:50;;;;;;;;;;;;;;;;;;5114726;27;1308;-76
2022/06/25 02:13:15;;;;;;;;;;;;;;;;;;5126058;27;1192;-77
2022/06/25 02:15:50;;;;;;;;;;;;;;;;;;5122506;27;1179;-77
2022/06/25 02:18:15;;;;;;;;;;;;;;;;;;5109686;27;1237;-77
2022/06/25 02:20:42;;;;;;;;;;;;;;;;;;5104474;28;1232;-76
2022/06/25 02:23:11;;;;;;;;;;;;;;;;;;5105502;27;1095;-76
2022/06/25 02:25:36;;;;;;;;;;;;;;;;;;5085190;28;1893;-77
2022/06/25 02:28:02;;;;;;;;;;;;;;;;;;5086081;28;1229;-77
2022/06/25 02:30:27;;;;;;;;;;;;;;;;;;5101459;28;1276;-79
2022/06/25 02:32:52;;;;;;;;;;;;;;;;;;5096717;27;1261;-77
2022/06/25 02:35:17;;;;;;;;;;;;;;;;;;5125230;27;1136;-78
2022/06/25 02:37:43;;;;;;;;;;;;;;;;;;5108649;27;1533;-78
2022/06/25 02:40:08;;;;;;;;;;;;;;;;;;5118879;27;1168;-78
2022/06/25 02:42:34;;;;;;;;;;;;;;;;;;5088100;28;1265;-78
2022/06/25 02:45:00;;;;;;;;;;;;;;;;;;5101224;27;1950;-78
2022/06/25 02:47:25;;;;;;;;;;;;;;;;;;5125759;27;1186;-78
2022/06/25 02:49:50;;;;;;;;;;;;;;;;;;5088757;28;1256;-78
2022/06/25 02:52:16;;;;;;;;;;;;;;;;;;5087140;28;1159;-79
2022/06/25 02:54:46;;;;;;;;;;;;;;;;;;5086139;28;1294;-78
2022/06/25 02:59:56;;;;;;;;;;;;;;;;;;5102986;28;1047;-78
2022/06/25 03:02:21;;;;;;;;;;;;;;;;;;5103723;28;1277;-78
2022/06/25 03:04:49;;;;;;;;;;;;;;;;;;5124289;28;1939;-79
2022/06/25 03:07:14;;;;;;;;;;;;;;;;;;5125551;28;1246;-79
2022/06/25 03:09:40;;;;;;;;;;;;;;;;;;5122938;28;1151;-78
2022/06/25 03:12:06;;;;;;;;;;;;;;;;;;5125907;28;1370;-78
2022/06/25 03:14:31;;;;;;;;;;;;;;;;;;5118590;27;1190;-77
2022/06/25 03:16:56;;;;;;;;;;;;;;;;;;5118625;28;1183;-78
2022/06/25 03:19:22;;;;;;;;;;;;;;;;;;5108334;27;1228;-78
2022/06/25 03:21:50;;;;;;;;;;;;;;;;;;5104953;28;1140;-78
2022/06/25 03:24:16;;;;;;;;;;;;;;;;;;5105560;28;1257;-78
2022/06/25 03:26:41;;;;;;;;;;;;;;;;;;5108936;28;1894;-78
2022/06/25 03:29:06;;;;;;;;;;;;;;;;;;5121663;27;1136;-78
2022/06/25 03:31:32;;;;;;;;;;;;;;;;;;5111498;27;1319;-78
2022/06/25 03:33:57;;;;;;;;;;;;;;;;;;5120385;27;1198;-78
2022/06/25 03:36:22;;;;;;;;;;;;;;;;;;5089932;28;1266;-78
2022/06/25 03:38:51;;;;;;;;;;;;;;;;;;5109519;27;1198;-78
2022/06/25 03:44:00;;;;;;;;;;;;;;;;;;5117629;27;1040;-78
2022/06/25 03:46:25;;;;;;;;;;;;;;;;;;5086519;28;2340;-79
2022/06/25 03:48:51;;;;;;;;;;;;;;;;;;5105131;28;1172;-79
2022/06/25 03:51:17;;;;;;;;;;;;;;;;;;5087968;28;1182;-78
2022/06/25 03:53:42;;;;;;;;;;;;;;;;;;5109530;28;1190;-79
2022/06/25 03:56:08;;;;;;;;;;;;;;;;;;5125688;27;1202;-78
2022/06/25 03:58:33;;;;;;;;;;;;;;;;;;5109052;27;1343;-79
2022/06/25 04:00:58;;;;;;;;;;;;;;;;;;5115845;27;1146;-79
2022/06/25 04:03:24;;;;;;;;;;;;;;;;;;5100576;27;1174;-78
2022/06/25 04:05:50;;;;;;;;;;;;;;;;;;5109936;27;1874;-79
2022/06/25 04:08:16;;;;;;;;;;;;;;;;;;5113904;27;1232;-78
2022/06/25 04:10:42;;;;;;;;;;;;;;;;;;5087170;28;1277;-78
2022/06/25 04:13:07;;;;;;;;;;;;;;;;;;5086923;28;1219;-78
2022/06/25 04:15:33;;;;;;;;;;;;;;;;;;5102772;28;1149;-79
2022/06/25 04:17:58;;;;;;;;;;;;;;;;;;5120464;27;1035;-78
2022/06/25 04:20:23;;;;;;;;;;;;;;;;;;5089308;28;1312;-78
2022/06/25 04:22:57;;;;;;;;;;;;;;;;;;5109927;28;1163;-77
2022/06/25 04:25:23;;;;;;;;;;;;;;;;;;5107521;28;1885;-79
2022/06/25 04:30:32;;;;;;;;;;;;;;;;;;5125672;27;991;-79
2022/06/25 04:32:57;;;;;;;;;;;;;;;;;;5113186;27;1276;-78
2022/06/25 04:35:22;;;;;;;;;;;;;;;;;;5108501;27;1151;-79
2022/06/25 04:37:47;;;;;;;;;;;;;;;;;;5110767;27;1267;-79
2022/06/25 04:40:13;;;;;;;;;;;;;;;;;;5126023;27;1235;-79
2022/06/25 04:42:38;;;;;;;;;;;;;;;;;;5127519;27;1300;-78
2022/06/25 04:45:04;;;;;;;;;;;;;;;;;;5112261;27;1909;-78
2022/06/25 04:47:29;;;;;;;;;;;;;;;;;;5085861;28;1227;-78
2022/06/25 04:49:58;;;;;;;;;;;;;;;;;;5088175;28;1205;-79
2022/06/25 04:52:23;;;;;;;;;;;;;;;;;;5105203;28;1324;-78
2022/06/25 04:54:48;;;;;;;;;;;;;;;;;;5086767;28;1375;-78
2022/06/25 04:57:14;;;;;;;;;;;;;;;;;;5107039;28;1124;-78
2022/06/25 04:59:39;;;;;;;;;;;;;;;;;;5110574;27;1199;-78
2022/06/25 05:02:04;;;;;;;;;;;;;;;;;;5123979;27;1266;-77
2022/06/25 05:04:30;;;;;;;;;;;;;;;;;;5100486;28;1336;-77
2022/06/25 05:06:58;;;;;;;;;;;;;;;;;;5106457;28;1894;-78
2022/06/25 05:09:24;;;;;;;;;;;;;;;;;;5106485;28;1320;-78
2022/06/25 05:11:49;;;;;;;;;;;;;;;;;;5088985;28;1210;-79
2022/06/25 05:14:17;;;;;;;;;;;;;;;;;;5101127;28;1144;-77
2022/06/25 05:16:45;;;;;;;;;;;;;;;;;;5104445;27;1258;-77
2022/06/25 05:19:10;;;;;;;;;;;;;;;;;;5123203;27;1344;-75
2022/06/25 05:21:35;;;;;;;;;;;;;;;;;;5128557;27;1111;-77
2022/06/25 05:24:01;;;;;;;;;;;;;;;;;;5098338;28;1236;-77
2022/06/25 05:26:26;;;;;;;;;;;;;;;;;;5088106;28;1898;-78
2022/06/25 05:28:56;;;;;;;;;;;;;;;;;;5101940;27;1316;-75
2022/06/25 05:31:22;;;;;;;;;;;;;;;;;;5119408;27;1276;-76
2022/06/25 05:33:47;;;;;;;;;;;;;;;;;;5117676;27;1291;-76
2022/06/25 05:36:12;;;;;;;;;;;;;;;;;;5115602;27;1072;-75
2022/06/25 05:38:37;;;;;;;;;;;;;;;;;;5126961;27;1202;-75
2022/06/25 05:41:08;;;;;;;;;;;;;;;;;;5126082;27;1151;-78
2022/06/25 05:43:33;;;;;;;;;;;;;;;;;;5109491;27;1233;-75
2022/06/25 05:46:02;;;;;;;;;;;;;;;;;;5083277;28;2053;-78
2022/06/25 05:48:27;;;;;;;;;;;;;;;;;;5119311;27;1139;-78
2022/06/25 05:50:53;;;;;;;;;;;;;;;;;;5110137;27;1139;-78
2022/06/25 05:53:21;;;;;;;;;;;;;;;;;;5122189;27;1341;-77
2022/06/25 05:55:46;;;;;;;;;;;;;;;;;;5126215;27;1232;-76
2022/06/25 05:58:12;;;;;;;;;;;;;;;;;;5109961;27;1084;-76
2022/06/25 06:00:50;;;;;;;;;;;;;;;;;;5115133;27;1144;-76
2022/06/25 06:03:16;;;;;;;;;;;;;;;;;;5116989;27;1403;-76
2022/06/25 06:05:41;;;;;;;;;;;;;;;;;;5121425;27;1905;-76
2022/06/25 06:08:06;;;;;;;;;;;;;;;;;;5126059;27;1107;-76
2022/06/25 06:10:32;;;;;;;;;;;;;;;;;;5109577;27;1304;-76
2022/06/25 06:12:57;;;;;;;;;;;;;;;;;;5126439;27;1271;-76
2022/06/25 06:15:22;;;;;;;;;;;;;;;;;;5118585;27;1115;-76
2022/06/25 06:17:48;;;;;;;;;;;;;;;;;;5124568;27;1242;-76
2022/06/25 06:20:13;;;;;;;;;;;;;;;;;;5107438;27;1131;-76
2022/06/25 06:22:38;;;;;;;;;;;;;;;;;;5104174;28;1171;-76
2022/06/25 06:25:04;;;;;;;;;;;;;;;;;;5107425;28;1963;-75
2022/06/25 06:27:29;;;;;;;;;;;;;;;;;;5105982;28;1284;-76
2022/06/25 06:29:55;;;;;;;;;;;;;;;;;;5103373;27;1189;-76
2022/06/25 06:32:21;;;;;;;;;;;;;;;;;;5122908;27;1167;-75
2022/06/25 06:34:46;;;;;;;;;;;;;;;;;;5115575;27;1282;-76
2022/06/25 06:37:12;;;;;;;;;;;;;;;;;;5086519;28;1217;-76
2022/06/25 06:39:37;;;;;;;;;;;;;;;;;;5105036;28;1127;-76
2022/06/25 06:42:12;;;;;;;;;;;;;;;;;;5105816;28;1273;-76
2022/06/25 06:44:37;;;;;;;;;;;;;;;;;;5098862;28;1223;-76
2022/06/25 06:47:02;;;;;;;;;;;;;;;;;;5109659;27;1291;-76
2022/06/25 06:49:28;;;;;;;;;;;;;;;;;;5086770;28;1393;-76
2022/06/25 06:51:53;;;;;;;;;;;;;;;;;;5089656;28;1170;-76
2022/06/25 06:54:18;;;;;;;;;;;;;;;;;;5086929;28;1302;-76
2022/06/25 06:56:43;;;;;;;;;;;;;;;;;;5106137;28;1369;-76
2022/06/25 06:59:09;;;;;;;;;;;;;;;;;;5081460;28;1206;-76
2022/06/25 07:01:34;;;;;;;;;;;;;;;;;;5084402;28;1515;-79
2022/06/25 07:04:00;;;;;;;;;;;;;;;;;;5105539;28;1183;-79
2022/06/25 07:06:25;;;;;;;;;;;;;;;;;;5086089;28;1942;-79
2022/06/25 07:08:51;;;;;;;;;;;;;;;;;;5105104;28;1339;-78
2022/06/25 07:11:28;;;;;;;;;;;;;;;;;;5113182;28;1253;-76
2022/06/25 07:13:57;;;;;;;;;;;;;;;;;;5102475;28;1115;-78
2022/06/25 07:16:22;;;;;;;;;;;;;;;;;;5081240;28;1218;-75
2022/06/25 07:18:48;;;;;;;;;;;;;;;;;;5086318;28;1269;-78
2022/06/25 07:21:13;;;;;;;;;;;;;;;;;;5094622;28;1229;-76
2022/06/25 07:23:39;;;;;;;;;;;;;;;;;;5126045;27;1203;-76
2022/06/25 07:26:04;;;;;;;;;;;;;;;;;;5124280;28;1890;-77
2022/06/25 07:28:29;;;;;;;;;;;;;;;;;;5123469;27;1131;-80
2022/06/25 07:30:54;;;;;;;;;;;;;;;;;;5117712;28;1139;-77
2022/06/25 07:33:20;;;;;;;;;;;;;;;;;;5113221;28;1166;-78
2022/06/25 07:35:45;;;;;;;;;;;;;;;;;;5124522;27;1207;-80
2022/06/25 07:38:13;;;;;;;;;;;;;;;;;;5123502;27;1206;-79
2022/06/25 07:40:39;;;;;;;;;;;;;;;;;;5107494;27;1291;-80
2022/06/25 07:43:04;;;;;;;;;;;;;;;;;;5087737;28;1313;-79
2022/06/25 07:45:30;;;;;;;;;;;;;;;;;;5121253;27;1970;-80
2022/06/25 07:47:55;;;;;;;;;;;;;;;;;;5120970;27;1235;-80
2022/06/25 07:53:04;;;;;;;;;;;;;;;;;;5132052;27;987;-79
2022/06/25 07:55:29;;;;;;;;;;;;;;;;;;5106425;27;1210;-77
2022/06/25 07:57:54;;;;;;;;;;;;;;;;;;5111058;27;1279;-75
2022/06/25 08:00:20;;;;;;;;;;;;;;;;;;5100285;27;1265;-76
2022/06/25 08:02:45;;;;;;;;;;;;;;;;;;5126125;27;1327;-78
2022/06/25 08:05:16;;;;;;;;;;;;;;;;;;5110405;27;1952;-76
2022/06/25 08:07:42;;;;;;;;;;;;;;;;;;5127873;27;1310;-78
2022/06/25 08:10:10;;;;;;;;;;;;;;;;;;5105078;27;1322;-78
2022/06/25 08:12:35;;;;;;;;;;;;;;;;;;5122015;27;1284;-77
2022/06/25 08:15:01;;;;;;;;;;;;;;;;;;5127852;27;1214;-78
2022/06/25 08:17:26;;;;;;;;;;;;;;;;;;5115071;27;1326;-78
2022/06/25 08:19:51;;;;;;;;;;;;;;;;;;5113553;27;1100;-77
2022/06/25 08:22:18;;;;;;;;;;;;;;;;;;5111003;27;1279;-77
2022/06/25 08:24:43;;;;;;;;;;;;;;;;;;5112463;27;1941;-78
2022/06/25 08:27:10;;;;;;;;;;;;;;;;;;5112697;27;1167;-78
2022/06/25 08:29:35;;;;;;;;;;;;;;;;;;5105368;27;1036;-78
2022/06/25 08:32:00;;;;;;;;;;;;;;;;;;5091828;27;1207;-78
2022/06/25 08:34:26;;;;;;;;;;;;;;;;;;5089056;27;1465;-78
2022/06/25 08:36:51;;;;;;;;;;;;;;;;;;5121086;27;1322;-77
2022/06/25 08:39:19;;;;;;;;;;;;;;;;;;5128583;27;1179;-78
2022/06/25 08:41:45;;;;;;;;;;;;;;;;;;5149872;27;1122;-77
2022/06/25 08:44:10;;;;;;;;;;;;;;;;;;5126032;27;1178;-78
2022/06/25 08:46:36;;;;;;;;;;;;;;;;;;5095192;27;1913;-78
2022/06/25 08:49:02;;;;;;;;;;;;;;;;;;5102199;27;1382;-78
2022/06/25 08:51:28;;;;;;;;;;;;;;;;;;5112165;27;1273;-78
2022/06/25 08:53:54;;;;;;;;;;;;;;;;;;5112124;27;1278;-78
2022/06/25 08:56:23;;;;;;;;;;;;;;;;;;5142231;27;1142;-78
2022/06/25 08:58:58;;;;;;;;;;;;;;;;;;5125057;27;1226;-78
2022/06/25 09:01:23;;;;;;;;;;;;;;;;;;5107824;27;1219;-79
2022/06/25 09:03:49;;;;;;;;;;;;;;;;;;5109496;27;1140;-79
2022/06/25 09:06:20;;;;;;;;;;;;;;;;;;5093219;27;1914;-78
2022/06/25 09:09:04;;;;;;;;;;;;;;;;;;5118473;27;1230;-78
2022/06/25 09:11:29;;;;;;;;;;;;;;;;;;5146782;27;1138;-78
2022/06/25 09:13:58;;;;;;;;;;;;;;;;;;5126817;27;1245;-77
2022/06/25 09:16:24;;;;;;;;;;;;;;;;;;5127341;27;1197;-78
2022/06/25 09:18:49;;;;;;;;;;;;;;;;;;5141046;27;1214;-77
2022/06/25 09:21:14;;;;;;;;;;;;;;;;;;5096976;27;1191;-76
2022/06/25 09:23:57;;;;;;;;;;;;;;;;;;5127749;27;1199;-76
2022/06/25 09:26:22;;;;;;;;;;;;;;;;;;5108300;27;1941;-77
2022/06/25 09:28:59;;;;;;;;;;;;;;;;;;5108516;27;1276;-78
2022/06/25 09:31:37;;;;;;;;;;;;;;;;;;5105335;27;1290;-77
2022/06/25 09:34:04;;;;;;;;;;;;;;;;;;5109487;27;1349;-78
2022/06/25 09:36:29;;;;;;;;;;;;;;;;;;5125754;27;1040;-77
2022/06/25 09:38:55;;;;;;;;;;;;;;;;;;5092558;27;1215;-78
2022/06/25 09:41:46;;;;;;;;;;;;;;;;;;5090759;27;1219;-77
2022/06/25 09:44:15;;;;;;;;;;;;;;;;;;5108965;27;1230;-80
2022/06/25 09:46:57;;;;;;;;;;;;;;;;;;5104877;27;1898;-76
2022/06/25 09:49:26;;;;;;;;;;;;;;;;;;5107579;27;1185;-78
2022/06/25 09:51:58;;;;;;;;;;;;;;;;;;5108919;27;1365;-79
2022/06/25 09:54:23;;;;;;;;;;;;;;;;;;5128302;27;1111;-78
2022/06/25 09:56:49;;;;;;;;;;;;;;;;;;5089690;27;1373;-79
2022/06/25 09:59:15;;;;;;;;;;;;;;;;;;5116917;27;1135;-78
2022/06/25 10:01:40;;;;;;;;;;;;;;;;;;5115461;27;1237;-75
2022/06/25 10:04:06;;;;;;;;;;;;;;;;;;5110778;27;1270;-77
2022/06/25 10:06:33;;;;;;;;;;;;;;;;;;5104919;27;1953;-76
2022/06/25 10:09:02;;;;;;;;;;;;;;;;;;5122438;27;1455;-77
2022/06/25 10:11:28;;;;;;;;;;;;;;;;;;5109505;27;1283;-77
2022/06/25 10:13:54;;;;;;;;;;;;;;;;;;5142700;27;1146;-77
2022/06/25 10:16:20;;;;;;;;;;;;;;;;;;5088899;27;1163;-76
2022/06/25 10:18:47;;;;;;;;;;;;;;;;;;5107664;27;1292;-79
2022/06/25 10:21:12;;;;;;;;;;;;;;;;;;5121044;27;1273;-80
2022/06/25 10:23:39;;;;;;;;;;;;;;;;;;5112654;27;1178;-78
2022/06/25 10:26:04;;;;;;;;;;;;;;;;;;5110033;27;1906;-80
2022/06/25 10:28:32;;;;;;;;;;;;;;;;;;5089601;27;1219;-80
2022/06/25 10:30:57;;;;;;;;;;;;;;;;;;5113535;27;1305;-80
2022/06/25 10:33:29;;;;;;;;;;;;;;;;;;5127222;27;1135;-80
2022/06/25 10:35:59;;;;;;;;;;;;;;;;;;5125291;27;1166;-79
2022/06/25 10:38:31;;;;;;;;;;;;;;;;;;5143760;27;1186;-80
2022/06/25 10:42:58;;;;;;;;;;;;;;;;;;5111151;27;1195;-77
2022/06/25 10:43:56;;;;;;;;;;;;;;;;;;5122729;27;1099;-80
2022/06/25 10:46:22;;;;;;;;;;;;;;;;;;5110102;27;1973;-80
2022/06/25 10:48:58;;;;;;;;;;;;;;;;;;5117799;27;1294;-81
2022/06/25 10:51:39;;;;;;;;;;;;;;;;;;5107852;27;1208;-80
2022/06/25 10:54:05;;;;;;;;;;;;;;;;;;5112383;27;1179;-80
2022/06/25 10:56:51;;;;;;;;;;;;;;;;;;5123152;27;1202;-79
2022/06/25 10:59:34;;;;;;;;;;;;;;;;;;5127528;27;1174;-79
2022/06/25 11:02:04;;;;;;;;;;;;;;;;;;5116266;27;1215;-82
2022/06/25 11:04:34;;;;;;;;;;;;;;;;;;5139444;27;1150;-80
2022/06/25 11:07:09;;;;;;;;;;;;;;;;;;5138134;27;1959;-81
2022/06/25 11:09:35;;;;;;;;;;;;;;;;;;5133862;27;1163;-80
2022/06/25 11:12:00;;;;;;;;;;;;;;;;;;5122139;27;1325;-81
2022/06/25 11:14:25;;;;;;;;;;;;;;;;;;5105043;27;1250;-82
2022/06/25 11:16:52;;;;;;;;;;;;;;;;;;5096609;27;1189;-81
2022/06/25 11:19:18;;;;;;;;;;;;;;;;;;5131457;27;1151;-81
2022/06/25 11:21:43;;;;;;;;;;;;;;;;;;5140139;27;1223;-80
2022/06/25 11:24:11;;;;;;;;;;;;;;;;;;5112179;27;1238;-80
2022/06/25 11:29:25;;;;;;;;;;;;;;;;;;5132099;27;998;-81
2022/06/25 11:31:51;;;;;;;;;;;;;;;;;;5135622;27;1219;-82
2022/06/25 11:34:18;;;;;;;;;;;;;;;;;;5146857;27;1173;-81
2022/06/25 11:36:43;;;;;;;;;;;;;;;;;;5126511;27;1189;-81
2022/06/25 11:39:08;;;;;;;;;;;;;;;;;;5145261;27;947;-80
2022/06/25 11:41:35;;;;;;;;;;;;;;;;;;5111730;27;1171;-81
2022/06/25 11:44:05;;;;;;;;;;;;;;;;;;5123632;27;1420;-80
2022/06/25 11:46:32;;;;;;;;;;;;;;;;;;5112675;27;1971;-81
2022/06/25 11:48:58;;;;;;;;;;;;;;;;;;5128056;27;1162;-80
2022/06/25 11:51:24;;;;;;;;;;;;;;;;;;5132420;27;782;-81
2022/06/25 11:53:50;;;;;;;;;;;;;;;;;;5148706;27;1074;-81
2022/06/25 11:56:16;;;;;;;;;;;;;;;;;;5132095;27;1275;-81
2022/06/25 11:58:42;;;;;;;;;;;;;;;;;;5128252;27;1241;-80
2022/06/25 12:01:07;;;;;;;;;;;;;;;;;;5147082;27;885;-80
2022/06/25 12:03:33;;;;;;;;;;;;;;;;;;5117805;27;1182;-81
2022/06/25 12:05:59;;;;;;;;;;;;;;;;;;5130308;27;1929;-81
2022/06/25 12:08:26;;;;;;;;;;;;;;;;;;5111929;27;1423;-81
2022/06/25 12:10:52;;;;;;;;;;;;;;;;;;5110773;27;1182;-81
2022/06/25 12:13:19;;;;;;;;;;;;;;;;;;5111911;27;1154;-82
2022/06/25 12:15:55;;;;;;;;;;;;;;;;;;5105629;27;1040;-80
2022/06/25 12:18:31;;;;;;;;;;;;;;;;;;5130132;27;1051;-82
2022/06/25 12:20:57;;;;;;;;;;;;;;;;;;5110791;27;1194;-81
2022/06/25 12:23:22;;;;;;;;;;;;;;;;;;5094550;27;1341;-82
2022/06/25 12:25:48;;;;;;;;;;;;;;;;;;5109582;27;1898;-81
2022/06/25 12:28:14;;;;;;;;;;;;;;;;;;5112932;27;1313;-81
2022/06/25 12:30:58;;;;;;;;;;;;;;;;;;5107509;27;1343;-79
2022/06/25 12:33:28;;;;;;;;;;;;;;;;;;5120287;27;1266;-80
2022/06/25 12:35:55;;;;;;;;;;;;;;;;;;5125223;27;1265;-81
2022/06/25 12:38:20;;;;;;;;;;;;;;;;;;5128941;27;900;-81
2022/06/25 12:40:47;;;;;;;;;;;;;;;;;;5128748;27;889;-83
2022/06/25 12:43:14;;;;;;;;;;;;;;;;;;5110500;27;1293;-82
2022/06/25 12:45:50;;;;;;;;;;;;;;;;;;5124711;27;1964;-82
2022/06/25 12:48:30;;;;;;;;;;;;;;;;;;5111008;27;865;-80
2022/06/25 12:51:06;;;;;;;;;;;;;;;;;;5127504;27;861;-80
2022/06/25 12:53:31;;;;;;;;;;;;;;;;;;5127417;27;778;-80
2022/06/25 12:56:00;;;;;;;;;;;;;;;;;;5090622;27;1187;-81
2022/06/25 12:58:32;;;;;;;;;;;;;;;;;;5109333;27;1165;-80
2022/06/25 13:00:57;;;;;;;;;;;;;;;;;;5125390;27;912;-80
2022/06/25 13:03:22;;;;;;;;;;;;;;;;;;5109850;27;1196;-82
2022/06/25 13:05:48;;;;;;;;;;;;;;;;;;5108522;27;1910;-80
2022/06/25 13:08:13;;;;;;;;;;;;;;;;;;5110007;27;1249;-80
2022/06/25 13:10:52;;;;;;;;;;;;;;;;;;5108953;27;1159;-81
2022/06/25 13:13:17;;;;;;;;;;;;;;;;;;5123034;27;1103;-80
2022/06/25 13:15:44;;;;;;;;;;;;;;;;;;5125235;27;1175;-80
2022/06/25 13:18:09;;;;;;;;;;;;;;;;;;5126150;27;1331;-80
2022/06/25 13:20:35;;;;;;;;;;;;;;;;;;5110468;27;1249;-81
2022/06/25 13:23:00;;;;;;;;;;;;;;;;;;5086388;27;1207;-81
2022/06/25 13:25:26;;;;;;;;;;;;;;;;;;5118089;27;1932;-76
2022/06/25 13:27:52;;;;;;;;;;;;;;;;;;5126048;27;1298;-76
2022/06/25 13:30:17;;;;;;;;;;;;;;;;;;5138875;27;1198;-76
2022/06/25 13:32:42;;;;;;;;;;;;;;;;;;5145115;27;1147;-77
2022/06/25 13:35:08;;;;;;;;;;;;;;;;;;5125716;27;1193;-77
2022/06/25 13:37:33;;;;;;;;;;;;;;;;;;5128239;27;1202;-76
2022/06/25 13:39:59;;;;;;;;;;;;;;;;;;5145298;27;1154;-76
2022/06/25 13:42:24;;;;;;;;;;;;;;;;;;5129216;27;1329;-76
2022/06/25 13:44:50;;;;;;;;;;;;;;;;;;5111252;27;1360;-77
2022/06/25 13:47:15;;;;;;;;;;;;;;;;;;5107348;27;2316;-76
2022/06/25 13:49:41;;;;;;;;;;;;;;;;;;5107062;27;1302;-74
2022/06/25 13:52:07;;;;;;;;;;;;;;;;;;5124615;27;1203;-77
2022/06/25 13:54:32;;;;;;;;;;;;;;;;;;5128472;27;1293;-73
2022/06/25 13:56:58;;;;;;;;;;;;;;;;;;5097696;27;1280;-74
2022/06/25 13:59:26;;;;;;;;;;;;;;;;;;5135797;27;1179;-73
2022/06/25 14:01:53;;;;;;;;;;;;;;;;;;5124995;27;1293;-73
2022/06/25 14:04:18;;;;;;;;;;;;;;;;;;5111298;27;1123;-74
2022/06/25 14:06:44;;;;;;;;;;;;;;;;;;5128175;27;1901;-73
2022/06/25 14:09:10;;;;;;;;;;;;;;;;;;5126695;27;1178;-74
2022/06/25 14:11:36;;;;;;;;;;;;;;;;;;5129578;27;1210;-74
2022/06/25 14:14:01;;;;;;;;;;;;;;;;;;5123527;27;1044;-74
2022/06/25 14:16:26;;;;;;;;;;;;;;;;;;5138764;27;1202;-73
2022/06/25 14:18:52;;;;;;;;;;;;;;;;;;5123581;27;1269;-74
2022/06/25 14:21:17;;;;;;;;;;;;;;;;;;5125972;27;1132;-74
2022/06/25 14:23:42;;;;;;;;;;;;;;;;;;5102041;27;1392;-74
2022/06/25 14:26:08;;;;;;;;;;;;;;;;;;5119168;27;1902;-78
2022/06/25 14:28:33;;;;;;;;;;;;;;;;;;5124123;27;1455;-78
2022/06/25 14:30:58;;;;;;;;;;;;;;;;;;5118541;27;1233;-77
2022/06/25 14:33:24;;;;;;;;;;;;;;;;;;5107655;27;1188;-78
2022/06/25 14:44:03;;;;;;;;;;;;;;;;;;5126680;27;692;-78
2022/06/25 14:46:28;;;;;;;;;;;;;;;;;;5108733;27;1973;-78
2022/06/25 14:48:58;;;;;;;;;;;;;;;;;;5109103;27;1296;-78
2022/06/25 14:51:25;;;;;;;;;;;;;;;;;;5128465;27;893;-78
2022/06/25 14:53:50;;;;;;;;;;;;;;;;;;5129105;27;1356;-78
2022/06/25 14:56:15;;;;;;;;;;;;;;;;;;5111687;27;1233;-78
2022/06/25 14:58:41;;;;;;;;;;;;;;;;;;5126741;27;746;-78
2022/06/25 15:01:07;;;;;;;;;;;;;;;;;;5106895;27;1218;-78
2022/06/25 15:03:32;;;;;;;;;;;;;;;;;;5109545;27;1227;-79
2022/06/25 15:05:58;;;;;;;;;;;;;;;;;;5142394;27;1929;-78
2022/06/25 15:08:23;;;;;;;;;;;;;;;;;;5099036;27;1233;-78
2022/06/25 15:10:48;;;;;;;;;;;;;;;;;;5107998;27;1317;-78
2022/06/25 15:13:14;;;;;;;;;;;;;;;;;;5123647;27;1268;-78
2022/06/25 15:15:41;;;;;;;;;;;;;;;;;;5086187;28;1528;-78
2022/06/25 15:18:07;;;;;;;;;;;;;;;;;;5089116;28;1304;-78
2022/06/25 15:20:33;;;;;;;;;;;;;;;;;;5111209;27;1248;-78
2022/06/25 15:23:02;;;;;;;;;;;;;;;;;;5111443;27;1308;-78
2022/06/25 15:25:27;;;;;;;;;;;;;;;;;;5112318;27;1945;-78
2022/06/25 15:27:52;;;;;;;;;;;;;;;;;;5112172;27;1154;-78
2022/06/25 15:30:18;;;;;;;;;;;;;;;;;;5107185;27;782;-79
2022/06/25 15:32:43;;;;;;;;;;;;;;;;;;5128311;27;810;-78
2022/06/25 15:35:09;;;;;;;;;;;;;;;;;;5112016;27;1167;-79
2022/06/25 15:37:38;;;;;;;;;;;;;;;;;;5111863;27;1235;-79
2022/06/25 15:40:03;;;;;;;;;;;;;;;;;;5109657;27;822;-78
2022/06/25 15:42:28;;;;;;;;;;;;;;;;;;5095485;27;1191;-79
2022/06/25 15:44:54;;;;;;;;;;;;;;;;;;5106483;27;1275;-79
2022/06/25 15:47:19;;;;;;;;;;;;;;;;;;5138868;27;1930;-79
2022/06/25 15:49:44;;;;;;;;;;;;;;;;;;5117379;27;1195;-79
2022/06/25 15:52:09;;;;;;;;;;;;;;;;;;5149769;27;1207;-79
2022/06/25 15:54:35;;;;;;;;;;;;;;;;;;5116067;27;1215;-78
2022/06/25 15:57:06;;;;;;;;;;;;;;;;;;5115230;27;1214;-79
2022/06/25 15:59:31;;;;;;;;;;;;;;;;;;5129935;27;1160;-79
2022/06/25 16:02:01;;;;;;;;;;;;;;;;;;5131140;27;1044;-79
2022/06/25 16:04:27;;;;;;;;;;;;;;;;;;5132102;27;1230;-78
2022/06/25 16:06:54;;;;;;;;;;;;;;;;;;5132512;27;1916;-78
2022/06/25 16:09:19;;;;;;;;;;;;;;;;;;5148444;27;908;-78
2022/06/25 16:11:45;;;;;;;;;;;;;;;;;;5151421;27;830;-78
2022/06/25 16:14:12;;;;;;;;;;;;;;;;;;5126929;27;802;-79
2022/06/25 16:16:38;;;;;;;;;;;;;;;;;;5131286;27;1206;-79
2022/06/25 16:19:05;;;;;;;;;;;;;;;;;;5131980;27;1185;-79
2022/06/25 16:21:31;;;;;;;;;;;;;;;;;;5121208;27;1489;-79
2022/06/25 16:23:57;;;;;;;;;;;;;;;;;;5111857;27;1198;-79
2022/06/25 16:26:22;;;;;;;;;;;;;;;;;;5128382;27;1949;-79
2022/06/25 16:28:57;;;;;;;;;;;;;;;;;;5127796;27;1061;-79
2022/06/25 16:31:22;;;;;;;;;;;;;;;;;;5126397;27;798;-79
2022/06/25 16:33:48;;;;;;;;;;;;;;;;;;5095583;27;1227;-79
2022/06/25 16:36:13;;;;;;;;;;;;;;;;;;5108979;27;1064;-79
2022/06/25 16:38:38;;;;;;;;;;;;;;;;;;5111291;27;1205;-79
2022/06/25 16:41:05;;;;;;;;;;;;;;;;;;5129504;27;873;-79
2022/06/25 16:46:16;;;;;;;;;;;;;;;;;;5109055;27;1902;-79
2022/06/25 16:48:41;;;;;;;;;;;;;;;;;;5094145;27;1143;-79
2022/06/25 16:51:10;;;;;;;;;;;;;;;;;;5090859;27;1279;-78
2022/06/25 16:53:40;;;;;;;;;;;;;;;;;;5089920;27;1262;-79
2022/06/25 16:56:06;;;;;;;;;;;;;;;;;;5126686;27;1179;-78
2022/06/25 16:58:36;;;;;;;;;;;;;;;;;;5107197;27;1299;-79
2022/06/25 17:01:20;;;;;;;;;;;;;;;;;;5125478;27;1115;-78
2022/06/25 17:03:45;;;;;;;;;;;;;;;;;;5121240;27;1198;-78
2022/06/25 17:06:14;;;;;;;;;;;;;;;;;;5111911;27;1882;-78
2022/06/25 17:08:41;;;;;;;;;;;;;;;;;;5099964;27;1333;-77
2022/06/25 17:11:13;;;;;;;;;;;;;;;;;;5095451;27;1364;-79
2022/06/25 17:13:38;;;;;;;;;;;;;;;;;;5111510;27;1202;-78
2022/06/25 17:16:04;;;;;;;;;;;;;;;;;;5083830;27;1245;-78
2022/06/25 17:18:29;;;;;;;;;;;;;;;;;;5090397;27;1201;-80
2022/06/25 17:20:55;;;;;;;;;;;;;;;;;;5130609;27;781;-79
2022/06/25 17:23:21;;;;;;;;;;;;;;;;;;5109491;27;1252;-79
2022/06/25 17:25:46;;;;;;;;;;;;;;;;;;5095104;27;1878;-79